Time;durP1;ratioP1;P1;durP2;ratioP2;P2;SDS_P1;SDS_P2;PMS_P1;PMS_P2;Temp;Humidity;BMP_temperature;BMP_pressure;BME280_temperature;BME280_humidity;BME280_pressure;Samples;Min_cycle;Max_cycle;Signal;HPM_P1;HPM_P2
2021/12/31 00:01:52;;;;;;;10.02;2.90;;;;;;;;;;5109330;28;20056;-65
2021/12/31 00:04:19;;;;;;;13.02;3.33;;;;;;;;;;5108937;28;20052;-65
2021/12/31 00:06:47;;;;;;;11.55;3.63;;;;;;;;;;5109506;28;20549;-65
2021/12/31 00:09:13;;;;;;;12.80;3.60;;;;;;;;;;5108053;28;20506;-65
2021/12/31 00:11:40;;;;;;;8.90;3.30;;;;;;;;;;5108644;28;20044;-65
2021/12/31 00:14:07;;;;;;;11.43;3.80;;;;;;;;;;5108903;28;20534;-66
2021/12/31 00:16:33;;;;;;;11.35;3.60;;;;;;;;;;5108545;28;20872;-65
2021/12/31 00:18:59;;;;;;;16.50;3.55;;;;;;;;;;5108700;28;20044;-66
2021/12/31 00:21:32;;;;;;;10.80;3.55;;;;;;;;;;5109310;28;20052;-65
2021/12/31 00:23:58;;;;;;;12.57;3.45;;;;;;;;;;5108334;28;20056;-65
2021/12/31 00:26:24;;;;;;;9.38;3.45;;;;;;;;;;5108766;28;20090;-65
2021/12/31 00:28:51;;;;;;;12.63;4.25;;;;;;;;;;5108821;27;20048;-65
2021/12/31 00:31:17;;;;;;;10.25;3.38;;;;;;;;;;5107926;28;20052;-65
2021/12/31 00:33:43;;;;;;;15.10;3.90;;;;;;;;;;5108719;28;20056;-65
2021/12/31 00:36:10;;;;;;;12.63;3.42;;;;;;;;;;5108256;28;20441;-66
2021/12/31 00:38:36;;;;;;;17.38;3.78;;;;;;;;;;5109514;28;20519;-65
2021/12/31 00:41:02;;;;;;;9.27;3.47;;;;;;;;;;5108525;28;20056;-65
2021/12/31 00:43:29;;;;;;;10.68;3.40;;;;;;;;;;5108172;28;20139;-65
2021/12/31 00:45:55;;;;;;;12.23;4.15;;;;;;;;;;5107722;28;20056;-66
2021/12/31 00:48:21;;;;;;;13.23;4.13;;;;;;;;;;5108026;28;20826;-66
2021/12/31 00:50:48;;;;;;;13.18;3.85;;;;;;;;;;5108697;28;20564;-66
2021/12/31 00:53:14;;;;;;;10.52;3.60;;;;;;;;;;5108571;28;20591;-65
2021/12/31 00:55:41;;;;;;;8.20;3.10;;;;;;;;;;5108541;28;20056;-65
2021/12/31 00:58:07;;;;;;;21.90;3.53;;;;;;;;;;5108232;28;20048;-65
2021/12/31 01:00:34;;;;;;;9.25;3.10;;;;;;;;;;5108749;28;20060;-66
2021/12/31 01:03:00;;;;;;;9.02;3.47;;;;;;;;;;5108117;28;20047;-65
2021/12/31 01:05:27;;;;;;;9.13;2.88;;;;;;;;;;5108424;28;20047;-65
2021/12/31 01:07:53;;;;;;;8.93;2.88;;;;;;;;;;5107904;28;20536;-65
2021/12/31 01:10:22;;;;;;;14.25;3.47;;;;;;;;;;5107962;28;20054;-66
2021/12/31 01:12:50;;;;;;;14.75;3.22;;;;;;;;;;5107977;28;20054;-65
2021/12/31 01:15:35;;;;;;;10.77;3.45;;;;;;;;;;5107922;28;20056;-65
2021/12/31 01:20:29;;;;;;;8.73;2.80;;;;;;;;;;5107811;28;20502;-65
2021/12/31 01:22:55;;;;;;;10.77;3.00;;;;;;;;;;5108150;28;20056;-65
2021/12/31 01:25:21;;;;;;;8.27;2.70;;;;;;;;;;5107717;28;20058;-65
2021/12/31 01:27:47;;;;;;;7.35;3.30;;;;;;;;;;5108151;28;20095;-66
2021/12/31 01:30:14;;;;;;;9.07;3.00;;;;;;;;;;5107448;28;20052;-65
2021/12/31 01:32:41;;;;;;;7.93;2.67;;;;;;;;;;5107675;28;20094;-66
2021/12/31 01:35:08;;;;;;;9.60;3.15;;;;;;;;;;5107515;28;20056;-65
2021/12/31 01:37:34;;;;;;;10.90;2.95;;;;;;;;;;5107623;28;20052;-65
2021/12/31 01:40:01;;;;;;;9.82;2.97;;;;;;;;;;5106622;28;20791;-65
2021/12/31 01:42:33;;;;;;;11.23;2.97;;;;;;;;;;5109009;28;20717;-65
2021/12/31 01:45:08;;;;;;;10.00;3.10;;;;;;;;;;5111249;28;20059;-66
2021/12/31 01:47:45;;;;;;;8.00;2.95;;;;;;;;;;5111148;28;20060;-65
2021/12/31 01:50:12;;;;;;;10.73;3.30;;;;;;;;;;5111324;28;21008;-65
2021/12/31 01:52:41;;;;;;;10.65;3.30;;;;;;;;;;5111250;28;20048;-66
2021/12/31 01:55:11;;;;;;;11.10;3.25;;;;;;;;;;5110944;28;20407;-65
2021/12/31 01:57:41;;;;;;;12.93;3.15;;;;;;;;;;5111002;28;20048;-66
2021/12/31 02:00:08;;;;;;;10.63;2.92;;;;;;;;;;5110734;28;20517;-66
2021/12/31 02:02:35;;;;;;;9.75;3.13;;;;;;;;;;5110895;28;20449;-66
2021/12/31 02:05:03;;;;;;;7.03;2.55;;;;;;;;;;5111485;28;20437;-66
2021/12/31 02:07:30;;;;;;;10.05;3.00;;;;;;;;;;5111188;28;20058;-65
2021/12/31 02:09:56;;;;;;;8.63;3.13;;;;;;;;;;5110981;28;20076;-65
2021/12/31 02:12:23;;;;;;;8.38;2.67;;;;;;;;;;5111191;28;20044;-66
2021/12/31 02:14:51;;;;;;;11.50;3.10;;;;;;;;;;5110850;28;20146;-66
2021/12/31 02:17:18;;;;;;;9.75;2.70;;;;;;;;;;5110988;28;20040;-66
2021/12/31 02:19:55;;;;;;;11.95;2.75;;;;;;;;;;5110769;28;20429;-66
2021/12/31 02:22:27;;;;;;;6.82;2.53;;;;;;;;;;5110235;28;20066;-65
2021/12/31 02:24:55;;;;;;;9.68;3.15;;;;;;;;;;5110019;28;20052;-65
2021/12/31 02:27:22;;;;;;;12.57;2.90;;;;;;;;;;5111101;28;20048;-66
2021/12/31 02:29:49;;;;;;;5.60;2.60;;;;;;;;;;5111103;28;20058;-66
2021/12/31 02:32:15;;;;;;;9.70;2.67;;;;;;;;;;5110290;28;20044;-66
2021/12/31 02:34:41;;;;;;;8.32;2.28;;;;;;;;;;5110436;28;20052;-65
2021/12/31 02:37:08;;;;;;;6.55;2.63;;;;;;;;;;5110019;28;20123;-65
2021/12/31 02:39:38;;;;;;;9.40;2.97;;;;;;;;;;5110430;28;21558;-65
2021/12/31 02:42:08;;;;;;;11.13;2.63;;;;;;;;;;5109615;28;20062;-65
2021/12/31 02:44:35;;;;;;;9.95;3.20;;;;;;;;;;5110077;28;20143;-66
2021/12/31 02:47:05;;;;;;;9.68;2.72;;;;;;;;;;5109865;28;20078;-66
2021/12/31 02:49:36;;;;;;;11.43;2.78;;;;;;;;;;5110495;28;20086;-66
2021/12/31 02:52:06;;;;;;;6.22;2.20;;;;;;;;;;5110018;27;20052;-65
2021/12/31 02:54:34;;;;;;;8.57;1.70;;;;;;;;;;5109571;28;20062;-66
2021/12/31 02:57:01;;;;;;;;;;;;;;;;;;5110636;28;20572;-65
2021/12/31 02:59:27;;;;;;;7.63;3.25;;;;;;;;;;5109299;28;44336;-66
2021/12/31 03:01:54;;;;;;;6.88;2.00;;;;;;;;;;5109824;28;20056;-65
2021/12/31 03:04:22;;;;;;;6.72;2.00;;;;;;;;;;5109689;28;20056;-66
2021/12/31 03:06:49;;;;;;;8.98;2.40;;;;;;;;;;5110339;28;20048;-66
2021/12/31 03:09:18;;;;;;;10.38;2.28;;;;;;;;;;5110316;28;20155;-66
2021/12/31 03:11:45;;;;;;;7.25;2.30;;;;;;;;;;5110395;28;20165;-65
2021/12/31 03:14:11;;;;;;;12.02;2.33;;;;;;;;;;5109779;28;20056;-66
2021/12/31 03:16:38;;;;;;;7.75;2.13;;;;;;;;;;5109681;28;20048;-65
2021/12/31 03:19:04;;;;;;;6.97;1.92;;;;;;;;;;5109077;28;20074;-66
2021/12/31 03:21:30;;;;;;;5.57;2.13;;;;;;;;;;5109952;28;20162;-65
2021/12/31 03:23:58;;;;;;;10.20;2.38;;;;;;;;;;5090826;28;20552;-65
2021/12/31 03:26:24;;;;;;;7.60;2.30;;;;;;;;;;5110363;28;20088;-68
2021/12/31 03:28:51;;;;;;;6.95;2.10;;;;;;;;;;5109027;28;20080;-67
2021/12/31 03:31:17;;;;;;;7.35;2.40;;;;;;;;;;5109467;28;20895;-67
2021/12/31 03:33:44;;;;;;;5.85;2.13;;;;;;;;;;5109899;28;20106;-65
2021/12/31 03:36:10;;;;;;;8.65;2.20;;;;;;;;;;5109279;28;20048;-67
2021/12/31 03:38:36;;;;;;;7.10;2.05;;;;;;;;;;5109298;28;20056;-67
2021/12/31 03:41:02;;;;;;;10.75;2.15;;;;;;;;;;5108932;28;20584;-65
2021/12/31 03:43:29;;;;;;;8.73;2.30;;;;;;;;;;5108854;28;20062;-67
2021/12/31 03:45:55;;;;;;;8.07;2.08;;;;;;;;;;5108691;28;20052;-68
2021/12/31 03:48:22;;;;;;;8.48;2.63;;;;;;;;;;5109548;28;20143;-67
2021/12/31 03:50:49;;;;;;;5.70;2.08;;;;;;;;;;5109202;28;20991;-67
2021/12/31 03:53:15;;;;;;;5.53;2.03;;;;;;;;;;5108879;28;20056;-68
2021/12/31 03:55:42;;;;;;;5.30;2.00;;;;;;;;;;5109606;28;20071;-65
2021/12/31 03:58:08;;;;;;;10.95;2.40;;;;;;;;;;5109116;28;20062;-65
2021/12/31 04:00:35;;;;;;;6.93;2.10;;;;;;;;;;5109113;28;20147;-65
2021/12/31 04:03:05;;;;;;;8.07;1.92;;;;;;;;;;5109218;28;20044;-65
2021/12/31 04:05:32;;;;;;;8.20;2.20;;;;;;;;;;5108608;27;20059;-67
2021/12/31 04:07:58;;;;;;;8.25;2.22;;;;;;;;;;5109248;28;20052;-68
2021/12/31 04:10:25;;;;;;;6.20;2.20;;;;;;;;;;5108805;28;20885;-65
2021/12/31 04:12:52;;;;;;;6.90;1.90;;;;;;;;;;5109038;28;20635;-64
2021/12/31 04:15:18;;;;;;;7.82;2.22;;;;;;;;;;5108847;28;20056;-65
2021/12/31 04:17:44;;;;;;;6.18;2.00;;;;;;;;;;5109123;28;20542;-65
2021/12/31 04:20:18;;;;;;;7.32;2.40;;;;;;;;;;5108591;28;20522;-65
2021/12/31 04:22:52;;;;;;;6.80;2.00;;;;;;;;;;5108135;28;20135;-67
2021/12/31 04:25:19;;;;;;;8.52;2.00;;;;;;;;;;5108149;28;20052;-65
2021/12/31 04:27:45;;;;;;;11.32;2.28;;;;;;;;;;5108676;28;20064;-65
2021/12/31 04:30:12;;;;;;;5.07;1.70;;;;;;;;;;5109051;28;20110;-65
2021/12/31 04:32:39;;;;;;;6.30;1.83;;;;;;;;;;5108273;28;20075;-68
2021/12/31 04:35:06;;;;;;;6.47;2.05;;;;;;;;;;5108799;28;20149;-65
2021/12/31 04:37:33;;;;;;;6.00;2.08;;;;;;;;;;5108546;28;20184;-65
2021/12/31 04:39:59;;;;;;;8.57;2.40;;;;;;;;;;5108083;28;20501;-68
2021/12/31 04:42:25;;;;;;;7.25;2.20;;;;;;;;;;5107484;28;20058;-68
2021/12/31 04:44:52;;;;;;;5.75;1.90;;;;;;;;;;5108958;28;20088;-66
2021/12/31 04:47:18;;;;;;;6.93;2.13;;;;;;;;;;5108175;28;20063;-66
2021/12/31 04:49:44;;;;;;;7.88;1.85;;;;;;;;;;5107983;28;20044;-66
2021/12/31 04:52:11;;;;;;;8.70;1.90;;;;;;;;;;5108035;28;20058;-66
2021/12/31 04:54:37;;;;;;;8.18;2.13;;;;;;;;;;5108216;28;20060;-66
2021/12/31 04:57:03;;;;;;;4.60;1.70;;;;;;;;;;5107766;28;20048;-65
2021/12/31 04:59:30;;;;;;;6.57;2.15;;;;;;;;;;5108526;28;20524;-66
2021/12/31 05:01:56;;;;;;;5.15;2.08;;;;;;;;;;5108522;28;20048;-66
2021/12/31 05:04:22;;;;;;;5.40;2.00;;;;;;;;;;5107530;28;20437;-65
2021/12/31 05:06:50;;;;;;;9.43;2.63;;;;;;;;;;5108944;28;20056;-66
2021/12/31 05:09:16;;;;;;;8.05;2.30;;;;;;;;;;5108325;28;20491;-66
2021/12/31 05:11:43;;;;;;;7.32;2.22;;;;;;;;;;5108336;28;20052;-65
2021/12/31 05:14:10;;;;;;;8.40;1.90;;;;;;;;;;5107385;28;20060;-66
2021/12/31 05:16:36;;;;;;;5.30;1.80;;;;;;;;;;5110296;28;20452;-65
2021/12/31 05:19:03;;;;;;;6.45;1.95;;;;;;;;;;5111389;28;20052;-65
2021/12/31 05:21:30;;;;;;;6.43;2.03;;;;;;;;;;5112005;28;20152;-66
2021/12/31 05:23:57;;;;;;;4.90;1.70;;;;;;;;;;5110694;28;20058;-66
2021/12/31 05:26:23;;;;;;;6.68;1.80;;;;;;;;;;5111313;28;20826;-66
2021/12/31 05:28:49;;;;;;;9.77;2.30;;;;;;;;;;5111289;28;20134;-66
2021/12/31 05:31:16;;;;;;;8.48;1.95;;;;;;;;;;5111361;28;20908;-66
2021/12/31 05:33:42;;;;;;;6.10;1.90;;;;;;;;;;5112016;28;20059;-66
2021/12/31 05:36:09;;;;;;;5.80;1.55;;;;;;;;;;5111390;28;20139;-66
2021/12/31 05:38:35;;;;;;;6.78;2.00;;;;;;;;;;5111555;28;20131;-66
2021/12/31 05:41:02;;;;;;;6.38;1.88;;;;;;;;;;5111265;28;20141;-66
2021/12/31 05:43:28;;;;;;;7.85;1.80;;;;;;;;;;5111415;28;20063;-67
2021/12/31 05:45:54;;;;;;;7.35;2.63;;;;;;;;;;5110696;28;20052;-67
2021/12/31 05:48:23;;;;;;;6.60;1.90;;;;;;;;;;5112052;28;20072;-66
2021/12/31 05:50:49;;;;;;;5.47;1.63;;;;;;;;;;5111317;28;20048;-66
2021/12/31 05:53:15;;;;;;;7.82;2.17;;;;;;;;;;5110526;28;20052;-66
2021/12/31 05:55:42;;;;;;;5.55;1.70;;;;;;;;;;5111000;28;20045;-66
2021/12/31 05:58:08;;;;;;;6.10;2.05;;;;;;;;;;5110788;28;20059;-69
2021/12/31 06:00:34;;;;;;;6.68;2.00;;;;;;;;;;5110559;28;20070;-67
2021/12/31 06:03:01;;;;;;;3.45;1.38;;;;;;;;;;5110595;28;20080;-70
2021/12/31 06:05:28;;;;;;;6.85;1.70;;;;;;;;;;5111226;28;20090;-66
2021/12/31 06:07:56;;;;;;;5.30;1.60;;;;;;;;;;5110769;28;20503;-68
2021/12/31 06:10:23;;;;;;;7.00;1.90;;;;;;;;;;5110819;28;20047;-67
2021/12/31 06:12:50;;;;;;;5.15;1.83;;;;;;;;;;5111424;28;20441;-66
2021/12/31 06:15:19;;;;;;;5.60;1.80;;;;;;;;;;5111452;28;20056;-70
2021/12/31 06:17:45;;;;;;;4.68;1.70;;;;;;;;;;5110921;28;20055;-67
2021/12/31 06:20:12;;;;;;;5.53;1.73;;;;;;;;;;5111045;28;20742;-66
2021/12/31 06:22:38;;;;;;;5.43;1.75;;;;;;;;;;5110858;28;20082;-67
2021/12/31 06:25:05;;;;;;;6.63;1.70;;;;;;;;;;5108957;28;20056;-66
2021/12/31 06:27:31;;;;;;;5.28;2.25;;;;;;;;;;5110127;27;20143;-67
2021/12/31 06:29:58;;;;;;;5.50;1.92;;;;;;;;;;5110618;28;20054;-66
2021/12/31 06:32:24;;;;;;;4.03;1.42;;;;;;;;;;5110396;28;20095;-66
2021/12/31 06:34:50;;;;;;;6.03;1.70;;;;;;;;;;5109625;28;20059;-66
2021/12/31 06:37:17;;;;;;;7.00;2.10;;;;;;;;;;5110367;28;20173;-67
2021/12/31 06:39:45;;;;;;;5.82;1.90;;;;;;;;;;5111315;28;20568;-67
2021/12/31 06:42:11;;;;;;;;;;;;;;;;;;5111029;28;20143;-66
2021/12/31 06:44:38;;;;;;;7.20;1.75;;;;;;;;;;5109028;28;44213;-66
2021/12/31 06:47:05;;;;;;;5.97;1.95;;;;;;;;;;5109894;28;20451;-67
2021/12/31 06:49:32;;;;;;;7.20;1.98;;;;;;;;;;5109701;28;20060;-66
2021/12/31 06:51:58;;;;;;;6.07;2.13;;;;;;;;;;5109994;28;20056;-67
2021/12/31 06:54:25;;;;;;;11.23;1.90;;;;;;;;;;5110232;28;20520;-66
2021/12/31 06:56:52;;;;;;;4.88;1.65;;;;;;;;;;5110492;28;20134;-66
2021/12/31 06:59:18;;;;;;;5.80;1.75;;;;;;;;;;5109905;28;20908;-66
2021/12/31 07:01:45;;;;;;;9.23;2.08;;;;;;;;;;5109957;28;20058;-66
2021/12/31 07:04:11;;;;;;;7.30;2.10;;;;;;;;;;5110169;28;20154;-66
2021/12/31 07:06:38;;;;;;;4.82;1.77;;;;;;;;;;5110022;28;20589;-66
2021/12/31 07:09:04;;;;;;;6.65;1.52;;;;;;;;;;5109976;28;20059;-66
2021/12/31 07:11:30;;;;;;;6.60;1.80;;;;;;;;;;5109289;28;20858;-66
2021/12/31 07:14:01;;;;;;;4.65;1.70;;;;;;;;;;5109431;28;20138;-66
2021/12/31 07:16:27;;;;;;;6.60;1.58;;;;;;;;;;5110219;28;20815;-66
2021/12/31 07:18:54;;;;;;;7.40;1.90;;;;;;;;;;5109342;28;20052;-66
2021/12/31 07:21:20;;;;;;;9.77;2.15;;;;;;;;;;5109411;28;20048;-66
2021/12/31 07:23:46;;;;;;;6.53;1.70;;;;;;;;;;5109182;28;20506;-67
2021/12/31 07:26:13;;;;;;;6.13;1.80;;;;;;;;;;5109334;28;20059;-66
2021/12/31 07:28:39;;;;;;;8.70;2.72;;;;;;;;;;5109890;28;20044;-66
2021/12/31 07:31:06;;;;;;;7.32;1.90;;;;;;;;;;5109368;28;20553;-66
2021/12/31 07:33:33;;;;;;;3.35;1.30;;;;;;;;;;5109529;28;20048;-66
2021/12/31 07:36:00;;;;;;;6.82;2.03;;;;;;;;;;5109511;28;20581;-67
2021/12/31 07:38:32;;;;;;;7.68;1.58;;;;;;;;;;5109124;28;20048;-67
2021/12/31 07:40:58;;;;;;;6.65;2.10;;;;;;;;;;5109296;28;20063;-67
2021/12/31 07:43:25;;;;;;;4.47;1.92;;;;;;;;;;5109038;28;20052;-67
2021/12/31 07:45:52;;;;;;;5.70;1.75;;;;;;;;;;5108851;28;20637;-66
2021/12/31 07:48:18;;;;;;;7.18;2.20;;;;;;;;;;5109486;28;20942;-66
2021/12/31 07:50:45;;;;;;;6.72;1.98;;;;;;;;;;5109104;28;21158;-67
2021/12/31 07:53:12;;;;;;;4.57;1.70;;;;;;;;;;5108546;28;20059;-67
2021/12/31 07:55:38;;;;;;;4.90;1.73;;;;;;;;;;5109377;28;20059;-67
2021/12/31 07:58:05;;;;;;;9.88;2.08;;;;;;;;;;5109608;28;20063;-66
2021/12/31 08:00:32;;;;;;;9.25;1.65;;;;;;;;;;5109455;28;20048;-67
2021/12/31 08:02:58;;;;;;;5.97;1.80;;;;;;;;;;5108644;28;20082;-66
2021/12/31 08:05:26;;;;;;;6.40;1.90;;;;;;;;;;5109022;28;20528;-66
2021/12/31 08:07:52;;;;;;;6.53;2.13;;;;;;;;;;5109378;28;20048;-67
2021/12/31 08:10:18;;;;;;;5.30;1.67;;;;;;;;;;5109191;28;20880;-67
2021/12/31 08:13:05;;;;;;;7.60;2.20;;;;;;;;;;5108787;28;20056;-66
2021/12/31 08:15:31;;;;;;;3.88;1.52;;;;;;;;;;5108705;28;20052;-66
2021/12/31 08:17:58;;;;;;;5.40;1.70;;;;;;;;;;5108652;28;20514;-67
2021/12/31 08:20:27;;;;;;;3.67;1.60;;;;;;;;;;5108847;28;20055;-66
2021/12/31 08:22:53;;;;;;;5.82;1.70;;;;;;;;;;5108323;28;20056;-67
2021/12/31 08:25:20;;;;;;;9.60;2.17;;;;;;;;;;5108148;28;20083;-66
2021/12/31 08:27:46;;;;;;;5.07;1.88;;;;;;;;;;5108099;28;20051;-67
2021/12/31 08:30:13;;;;;;;5.65;1.90;;;;;;;;;;5107940;28;20078;-66
2021/12/31 08:32:39;;;;;;;6.82;2.50;;;;;;;;;;5108831;28;20056;-66
2021/12/31 08:35:06;;;;;;;10.10;2.15;;;;;;;;;;5108037;28;20052;-68
2021/12/31 08:37:32;;;;;;;6.28;2.00;;;;;;;;;;5108652;28;20056;-67
2021/12/31 08:39:59;;;;;;;6.22;2.00;;;;;;;;;;5108635;28;20054;-67
2021/12/31 08:42:25;;;;;;;6.13;1.90;;;;;;;;;;5108031;28;20576;-67
2021/12/31 08:44:52;;;;;;;6.63;2.00;;;;;;;;;;5108581;28;20052;-67
2021/12/31 08:47:21;;;;;;;5.03;1.85;;;;;;;;;;5113337;27;20055;-67
2021/12/31 08:49:48;;;;;;;6.65;1.90;;;;;;;;;;5127909;27;20051;-67
2021/12/31 08:52:15;;;;;;;9.10;2.03;;;;;;;;;;5126827;27;20062;-68
2021/12/31 08:54:41;;;;;;;8.85;2.22;;;;;;;;;;5128863;27;20074;-67
2021/12/31 08:57:07;;;;;;;6.43;2.03;;;;;;;;;;5128834;27;20052;-66
2021/12/31 08:59:33;;;;;;;6.13;2.03;;;;;;;;;;5128831;27;20047;-66
2021/12/31 09:02:00;;;;;;;7.53;2.17;;;;;;;;;;5128677;27;20052;-67
2021/12/31 09:04:27;;;;;;;8.45;2.00;;;;;;;;;;5129177;27;20059;-65
2021/12/31 09:06:54;;;;;;;7.70;2.08;;;;;;;;;;5129136;27;20138;-66
2021/12/31 09:09:20;;;;;;;5.03;1.83;;;;;;;;;;5127976;27;20051;-66
2021/12/31 09:11:47;;;;;;;7.75;2.20;;;;;;;;;;5128975;27;20060;-66
2021/12/31 09:14:13;;;;;;;5.75;2.20;;;;;;;;;;5127719;27;20055;-66
2021/12/31 09:16:39;;;;;;;8.23;2.17;;;;;;;;;;5127606;27;20036;-66
2021/12/31 09:19:06;;;;;;;6.80;2.00;;;;;;;;;;5128969;27;20086;-66
2021/12/31 09:21:32;;;;;;;7.80;1.83;;;;;;;;;;5128218;27;20503;-66
2021/12/31 09:23:58;;;;;;;6.68;2.50;;;;;;;;;;5128514;27;20063;-67
2021/12/31 09:26:25;;;;;;;5.88;2.78;;;;;;;;;;5128594;27;20047;-66
2021/12/31 09:28:51;;;;;;;7.45;2.08;;;;;;;;;;5127422;27;20077;-66
2021/12/31 09:31:17;;;;;;;7.90;2.20;;;;;;;;;;5127627;27;20055;-67
2021/12/31 09:33:44;;;;;;;8.38;2.10;;;;;;;;;;5128636;27;20072;-66
2021/12/31 09:36:10;;;;;;;5.57;2.30;;;;;;;;;;5127587;27;20121;-66
2021/12/31 09:38:36;;;;;;;6.45;2.20;;;;;;;;;;5128997;27;20052;-66
2021/12/31 09:41:03;;;;;;;9.50;2.45;;;;;;;;;;5127730;27;21408;-66
2021/12/31 09:43:29;;;;;;;9.05;2.10;;;;;;;;;;5127799;27;20062;-66
2021/12/31 09:45:55;;;;;;;6.45;2.65;;;;;;;;;;5127326;27;20052;-66
2021/12/31 09:48:23;;;;;;;8.93;2.40;;;;;;;;;;5127821;27;20058;-66
2021/12/31 09:50:51;;;;;;;7.45;2.45;;;;;;;;;;5127874;27;20056;-66
2021/12/31 09:53:18;;;;;;;5.72;2.30;;;;;;;;;;5128449;27;20048;-66
2021/12/31 09:55:46;;;;;;;5.82;2.10;;;;;;;;;;5127518;27;20054;-66
2021/12/31 09:58:13;;;;;;;4.70;2.40;;;;;;;;;;5127764;27;20066;-67
2021/12/31 10:00:44;;;;;;;7.32;2.53;;;;;;;;;;5128254;27;20134;-66
2021/12/31 10:03:11;;;;;;;7.00;2.30;;;;;;;;;;5129615;27;20079;-66
2021/12/31 10:05:41;;;;;;;8.57;2.78;;;;;;;;;;5130564;27;20146;-66
2021/12/31 10:08:21;;;;;;;7.75;2.50;;;;;;;;;;5132084;27;20513;-66
2021/12/31 10:11:03;;;;;;;8.75;2.38;;;;;;;;;;5131731;27;20062;-66
2021/12/31 10:13:30;;;;;;;7.90;2.40;;;;;;;;;;5131059;27;20574;-66
2021/12/31 10:15:57;;;;;;;8.77;2.70;;;;;;;;;;5112920;27;20130;-66
2021/12/31 10:18:30;;;;;;;8.55;3.70;;;;;;;;;;5130446;27;20083;-66
2021/12/31 10:20:57;;;;;;;11.32;3.47;;;;;;;;;;5130987;27;20055;-66
2021/12/31 10:23:23;;;;;;;7.85;2.63;;;;;;;;;;5131212;27;20054;-66
2021/12/31 10:25:49;;;;;;;6.95;2.53;;;;;;;;;;5131478;27;20497;-66
2021/12/31 10:28:16;;;;;;;8.05;2.53;;;;;;;;;;5130842;27;20150;-66
2021/12/31 10:30:43;;;;;;;6.25;2.47;;;;;;;;;;5130638;27;20531;-66
2021/12/31 10:33:10;;;;;;;8.32;2.50;;;;;;;;;;5130519;27;20048;-66
2021/12/31 10:35:43;;;;;;;9.07;3.00;;;;;;;;;;5130798;27;20075;-66
2021/12/31 10:38:12;;;;;;;7.50;2.88;;;;;;;;;;5130334;27;20060;-65
2021/12/31 10:40:45;;;;;;;15.68;3.10;;;;;;;;;;5112537;27;20414;-65
2021/12/31 10:43:15;;;;;;;7.35;3.20;;;;;;;;;;5110080;27;20852;-64
2021/12/31 10:46:00;;;;;;;8.60;2.33;;;;;;;;;;5110662;28;20058;-65
2021/12/31 10:48:46;;;;;;;10.05;2.92;;;;;;;;;;5117647;27;20091;-65
2021/12/31 10:51:15;;;;;;;9.02;2.72;;;;;;;;;;5124143;27;20139;-67
2021/12/31 10:53:49;;;;;;;7.63;2.92;;;;;;;;;;5116390;27;20051;-68
2021/12/31 10:56:15;;;;;;;8.57;2.65;;;;;;;;;;5117781;27;20058;-68
2021/12/31 10:58:46;;;;;;;8.07;3.20;;;;;;;;;;5126830;27;20527;-66
2021/12/31 11:01:15;;;;;;;9.75;3.00;;;;;;;;;;5129635;27;20050;-66
2021/12/31 11:03:42;;;;;;;5.53;2.58;;;;;;;;;;5126020;27;20075;-66
2021/12/31 11:06:12;;;;;;;9.73;2.90;;;;;;;;;;5110304;27;20059;-66
2021/12/31 11:08:42;;;;;;;7.47;2.53;;;;;;;;;;5121053;27;20055;-66
2021/12/31 11:11:08;;;;;;;6.95;2.60;;;;;;;;;;5129033;27;20208;-67
2021/12/31 11:13:35;;;;;;;9.13;2.70;;;;;;;;;;5118593;27;20502;-65
2021/12/31 11:16:01;;;;;;;7.80;2.45;;;;;;;;;;5127395;27;20082;-65
2021/12/31 11:18:28;;;;;;;8.32;3.15;;;;;;;;;;5118541;27;20825;-68
2021/12/31 11:20:56;;;;;;;10.25;2.92;;;;;;;;;;5111983;27;20241;-67
2021/12/31 11:23:24;;;;;;;6.45;2.80;;;;;;;;;;5114358;27;20498;-67
2021/12/31 11:25:50;;;;;;;8.93;2.88;;;;;;;;;;5114253;27;20060;-67
2021/12/31 11:28:24;;;;;;;6.97;2.50;;;;;;;;;;5119764;27;20044;-67
2021/12/31 11:30:51;;;;;;;7.82;2.90;;;;;;;;;;5128738;27;20059;-68
2021/12/31 11:33:18;;;;;;;6.15;2.75;;;;;;;;;;5127846;27;20056;-67
2021/12/31 11:35:46;;;;;;;6.05;2.63;;;;;;;;;;5111587;27;20051;-67
2021/12/31 11:38:39;;;;;;;8.73;3.00;;;;;;;;;;5117158;27;20513;-67
2021/12/31 11:41:08;;;;;;;12.18;3.10;;;;;;;;;;5129698;27;20054;-68
2021/12/31 11:43:34;;;;;;;;;;;;;;;;;;5121761;27;20052;-67
2021/12/31 11:46:10;;;;;;;14.10;4.07;;;;;;;;;;5119862;27;45771;-67
2021/12/31 11:48:48;;;;;;;8.80;3.25;;;;;;;;;;5128572;27;20067;-67
2021/12/31 11:51:16;;;;;;;9.60;3.13;;;;;;;;;;5126006;27;20139;-66
2021/12/31 11:53:57;;;;;;;9.23;3.40;;;;;;;;;;5126328;27;20051;-66
2021/12/31 11:56:33;;;;;;;7.45;3.13;;;;;;;;;;5120393;27;20052;-66
2021/12/31 11:59:09;;;;;;;9.43;3.65;;;;;;;;;;5129452;27;20087;-66
2021/12/31 12:01:51;;;;;;;12.07;3.72;;;;;;;;;;5120785;27;20131;-67
2021/12/31 12:04:36;;;;;;;7.75;3.30;;;;;;;;;;5129074;27;20055;-67
2021/12/31 12:07:07;;;;;;;11.40;3.28;;;;;;;;;;5126681;27;20134;-67
2021/12/31 12:09:36;;;;;;;11.88;3.72;;;;;;;;;;5112454;27;20170;-67
2021/12/31 12:12:10;;;;;;;10.57;4.07;;;;;;;;;;5111812;27;20051;-68
2021/12/31 12:14:42;;;;;;;9.15;3.72;;;;;;;;;;5125710;27;20204;-67
2021/12/31 12:17:12;;;;;;;8.23;3.17;;;;;;;;;;5109648;27;20464;-67
2021/12/31 12:19:50;;;;;;;10.95;3.20;;;;;;;;;;5109884;27;20056;-66
2021/12/31 12:22:24;;;;;;;11.95;3.22;;;;;;;;;;5109810;27;20821;-66
2021/12/31 12:24:51;;;;;;;11.88;3.92;;;;;;;;;;5122368;27;20052;-66
2021/12/31 12:27:19;;;;;;;10.27;3.45;;;;;;;;;;5117214;27;20163;-67
2021/12/31 12:29:46;;;;;;;11.60;3.67;;;;;;;;;;5108186;27;20513;-67
2021/12/31 12:32:13;;;;;;;8.57;2.80;;;;;;;;;;5121419;27;20051;-67
2021/12/31 12:34:39;;;;;;;9.55;3.05;;;;;;;;;;5124359;27;20056;-68
2021/12/31 12:37:06;;;;;;;13.40;3.30;;;;;;;;;;5108206;27;20054;-69
2021/12/31 12:39:33;;;;;;;7.18;3.13;;;;;;;;;;5129609;27;20064;-68
2021/12/31 12:41:59;;;;;;;12.20;3.47;;;;;;;;;;5126243;27;20493;-69
2021/12/31 12:44:25;;;;;;;10.13;3.50;;;;;;;;;;5108262;28;20059;-69
2021/12/31 12:46:54;;;;;;;11.07;3.97;;;;;;;;;;5108430;28;20564;-69
2021/12/31 12:49:23;;;;;;;8.82;3.38;;;;;;;;;;5127931;27;20050;-69
2021/12/31 12:51:49;;;;;;;11.15;3.47;;;;;;;;;;5124693;27;20793;-69
2021/12/31 12:54:21;;;;;;;8.65;3.70;;;;;;;;;;5116943;27;20200;-68
2021/12/31 12:56:49;;;;;;;14.93;3.47;;;;;;;;;;5128795;27;20831;-68
2021/12/31 12:59:19;;;;;;;9.02;3.50;;;;;;;;;;5128742;27;20055;-67
2021/12/31 13:01:46;;;;;;;8.32;3.58;;;;;;;;;;5127412;27;20494;-67
2021/12/31 13:04:14;;;;;;;8.73;3.47;;;;;;;;;;5113855;27;20058;-67
2021/12/31 13:06:58;;;;;;;12.75;3.70;;;;;;;;;;5122088;27;20063;-68
2021/12/31 13:09:28;;;;;;;9.20;3.58;;;;;;;;;;5118127;27;20437;-67
2021/12/31 13:11:59;;;;;;;11.20;3.60;;;;;;;;;;5122787;27;20062;-68
2021/12/31 13:14:30;;;;;;;10.63;4.43;;;;;;;;;;5124407;27;20532;-67
2021/12/31 13:16:57;;;;;;;9.77;3.78;;;;;;;;;;5110255;27;20048;-67
2021/12/31 13:19:28;;;;;;;14.10;4.60;;;;;;;;;;5117080;27;20051;-68
2021/12/31 13:21:59;;;;;;;13.00;3.67;;;;;;;;;;5124752;27;20058;-68
2021/12/31 13:24:26;;;;;;;11.18;3.80;;;;;;;;;;5123804;27;20056;-66
2021/12/31 13:26:54;;;;;;;10.85;3.97;;;;;;;;;;5113929;27;20052;-67
2021/12/31 13:29:31;;;;;;;9.75;4.10;;;;;;;;;;5115109;27;20130;-68
2021/12/31 13:32:07;;;;;;;13.50;4.55;;;;;;;;;;5113774;27;20052;-67
2021/12/31 13:34:45;;;;;;;9.90;3.88;;;;;;;;;;5118192;27;20052;-67
2021/12/31 13:37:24;;;;;;;9.98;3.83;;;;;;;;;;5121959;27;20555;-67
2021/12/31 13:39:50;;;;;;;;;;;;;;;;;;5113996;27;20058;-67
2021/12/31 13:42:18;;;;;;;7.78;3.50;;;;;;;;;;5112484;27;44158;-67
2021/12/31 13:44:48;;;;;;;11.35;3.83;;;;;;;;;;5127595;27;20079;-67
2021/12/31 13:47:16;;;;;;;10.48;4.15;;;;;;;;;;5123653;27;20054;-67
2021/12/31 13:49:50;;;;;;;13.03;4.67;;;;;;;;;;5119834;27;20579;-67
2021/12/31 13:52:17;;;;;;;12.45;4.47;;;;;;;;;;5119921;27;20505;-68
2021/12/31 13:54:44;;;;;;;11.35;4.68;;;;;;;;;;5111315;27;20059;-68
2021/12/31 13:57:18;;;;;;;9.57;4.15;;;;;;;;;;5114245;27;20082;-67
2021/12/31 13:59:45;;;;;;;15.93;4.30;;;;;;;;;;5123612;27;20052;-66
2021/12/31 14:02:11;;;;;;;15.18;4.20;;;;;;;;;;5124721;27;20126;-67
2021/12/31 14:04:53;;;;;;;11.15;4.30;;;;;;;;;;5117737;27;20519;-69
2021/12/31 14:07:22;;;;;;;13.05;4.05;;;;;;;;;;5119796;27;20108;-70
2021/12/31 14:09:49;;;;;;;11.73;4.80;;;;;;;;;;5123625;27;20064;-70
2021/12/31 14:12:17;;;;;;;13.55;4.50;;;;;;;;;;5112532;27;20082;-70
2021/12/31 14:14:43;;;;;;;10.43;4.07;;;;;;;;;;5126608;27;20056;-70
2021/12/31 14:17:11;;;;;;;13.68;4.10;;;;;;;;;;5118226;27;20758;-69
2021/12/31 14:19:41;;;;;;;12.23;3.80;;;;;;;;;;5117482;27;20078;-70
2021/12/31 14:22:08;;;;;;;9.63;3.55;;;;;;;;;;5126933;27;20051;-71
2021/12/31 14:24:35;;;;;;;15.98;4.90;;;;;;;;;;5113096;27;20048;-71
2021/12/31 14:27:06;;;;;;;17.15;4.35;;;;;;;;;;5123249;27;20052;-70
2021/12/31 14:29:33;;;;;;;12.70;4.55;;;;;;;;;;5122391;27;20176;-70
2021/12/31 14:32:00;;;;;;;13.55;3.72;;;;;;;;;;5126893;27;20062;-71
2021/12/31 14:34:28;;;;;;;15.50;4.70;;;;;;;;;;5116229;27;20052;-70
2021/12/31 14:37:14;;;;;;;8.50;3.78;;;;;;;;;;5110736;28;20259;-70
2021/12/31 14:39:50;;;;;;;14.55;3.45;;;;;;;;;;5110362;28;20139;-70
2021/12/31 14:42:21;;;;;;;16.15;5.05;;;;;;;;;;5122668;27;20060;-70
2021/12/31 14:44:47;;;;;;;17.40;4.10;;;;;;;;;;5124154;27;20048;-70
2021/12/31 14:47:13;;;;;;;16.63;3.75;;;;;;;;;;5122454;27;20138;-70
2021/12/31 14:49:40;;;;;;;16.05;4.53;;;;;;;;;;5116787;27;20048;-71